createdAt,value
2019-05-13T04:02:04.822Z,103410.39
2019-05-13T04:05:35.773Z,103415.15
2019-05-13T04:09:22.043Z,103416.99
2019-05-13T04:12:42.775Z,103425.33
2019-05-13T04:16:14.709Z,103424.48
2019-05-13T04:19:44.825Z,103425.65
2019-05-13T04:23:14.996Z,103425.15
2019-05-13T04:26:44.949Z,103431.75
2019-05-13T04:30:15.307Z,103434.71
2019-05-13T04:33:45.246Z,103431.09
2019-05-13T04:37:15.233Z,103427.43
2019-05-13T04:40:45.231Z,103429.17
2019-05-13T04:44:15.199Z,103431.64
2019-05-13T04:47:45.345Z,103434.6
2019-05-13T04:51:15.373Z,103424.82
2019-05-13T04:54:45.327Z,103428.13
2019-05-13T04:58:15.488Z,103424.18
2019-05-13T05:01:52.856Z,103429.37
2019-05-13T05:05:22.453Z,103433.32
2019-05-13T05:08:53.487Z,103429.82
2019-05-13T05:12:24.448Z,103420.04
2019-05-13T05:15:54.423Z,103433.34
2019-05-13T05:19:25.488Z,103426.89
2019-05-13T05:22:55.457Z,103425.35
2019-05-13T05:26:25.431Z,103429.76
2019-05-13T05:29:55.394Z,103425.62
2019-05-13T05:33:25.349Z,103428.89
2019-05-13T05:36:55.446Z,103435.91
2019-05-13T05:40:31.519Z,103429.96
2019-05-13T05:44:02.099Z,103438.9
2019-05-13T05:47:32.298Z,103437.17
2019-05-13T05:51:03.479Z,103441.42
2019-05-13T05:54:33.477Z,103443.25
2019-05-13T05:58:03.454Z,103444.1
2019-05-13T06:01:37.399Z,103442.82
2019-05-13T06:05:06.378Z,103445.78
2019-05-13T06:08:36.345Z,103450.31
2019-05-13T06:12:06.318Z,103449.25
2019-05-13T06:15:37.272Z,103451.39
2019-05-13T06:19:08.230Z,103446.07
2019-05-13T06:22:39.518Z,103447.06
2019-05-13T06:26:12.535Z,103453.46
2019-05-13T06:29:42.582Z,103453.58
2019-05-13T06:33:13.273Z,103457.7
2019-05-13T06:36:43.254Z,103455.67
2019-05-13T06:40:14.448Z,103456.95
2019-05-13T06:43:44.397Z,103455.31
2019-05-13T06:47:14.388Z,103459.7
2019-05-13T06:50:44.377Z,103465.33
2019-05-13T06:54:14.337Z,103471.09
2019-05-13T06:57:44.400Z,103476.35
2019-05-13T07:01:14.379Z,103477.4
2019-05-13T07:04:44.349Z,103474.95
2019-05-13T07:08:14.328Z,103479.85
2019-05-13T07:11:44.332Z,103485.52
2019-05-13T07:15:14.456Z,103481.09
2019-05-13T07:18:44.439Z,103484.81
2019-05-13T07:22:15.525Z,103490.29
2019-05-13T07:25:45.501Z,103493.01
2019-05-13T07:29:15.804Z,103494.48
2019-05-13T07:32:45.591Z,103494.25
2019-05-13T07:36:15.563Z,103495.73
2019-05-13T07:39:45.535Z,103491.71
2019-05-13T07:43:15.495Z,103497.6
2019-05-13T07:46:45.552Z,103498.06
2019-05-13T07:50:15.602Z,103500.75
2019-05-13T07:53:45.564Z,103499.84
2019-05-13T07:57:15.528Z,103502.07
2019-05-13T08:00:46.490Z,103511.29
2019-05-13T08:04:22.657Z,103502.7
2019-05-13T08:07:51.646Z,103504.12
2019-05-13T08:11:23.581Z,103498.85
2019-05-13T08:14:54.378Z,103502.06
2019-05-13T08:18:24.355Z,103500.71
2019-05-13T08:21:54.454Z,103500.17
2019-05-13T08:25:24.412Z,103499.1
2019-05-13T08:29:01.458Z,103499.52
2019-05-13T08:32:31.379Z,103511.48
2019-05-13T08:36:01.704Z,103503.59
2019-05-13T08:39:38.046Z,103507.54
2019-05-13T08:43:07.298Z,103505.03
2019-05-13T08:46:37.258Z,103504.1
2019-05-13T08:50:07.283Z,103518.92
2019-05-13T08:53:37.663Z,103517
2019-05-13T08:57:07.632Z,103528.9
2019-05-13T09:00:37.583Z,103529.84
2019-05-13T09:04:07.557Z,103521.78
2019-05-13T09:07:37.532Z,103516.32
2019-05-13T09:11:08.643Z,103528.34
2019-05-13T09:14:41.616Z,103523.53
2019-05-13T09:18:11.579Z,103534.78
2019-05-13T09:21:42.600Z,103532.57
2019-05-13T09:25:13.688Z,103527.35
2019-05-13T09:28:43.679Z,103532.93
2019-05-13T09:32:13.641Z,103537.96
2019-05-13T09:35:44.608Z,103536.28
2019-05-13T09:39:14.570Z,103533.51
2019-05-13T09:42:51.000Z,103544.89
2019-05-13T09:46:18.549Z,103536.62
2019-05-13T09:49:49.516Z,103547.84
2019-05-13T09:53:21.853Z,103548.61
2019-05-13T09:56:52.678Z,103570.78
2019-05-13T10:00:23.635Z,103565.78
2019-05-13T10:03:58.074Z,103572.15
2019-05-13T10:07:26.572Z,103574.12
2019-05-13T10:10:56.521Z,103568.43
2019-05-13T10:14:26.679Z,103574.44
2019-05-13T10:17:56.682Z,103575.08
2019-05-13T10:21:26.700Z,103578.62
2019-05-13T10:24:56.713Z,103565.11
2019-05-13T10:28:26.702Z,103563.59
2019-05-13T10:31:56.836Z,103556.67
2019-05-13T10:35:26.826Z,103552.6
2019-05-13T10:38:56.843Z,103546.68
2019-05-13T10:42:26.823Z,103526.83
2019-05-13T10:45:56.771Z,103543.26
2019-05-13T10:49:26.746Z,103535.54
2019-05-13T10:52:56.740Z,103538.35
2019-05-13T10:56:26.703Z,103532.75
2019-05-13T11:00:00.389Z,103529.72
2019-05-13T11:03:32.799Z,103529.95
2019-05-13T11:07:03.580Z,103537.82
2019-05-13T11:10:35.549Z,103533.4
2019-05-13T11:14:11.126Z,103521.25
2019-05-13T11:17:39.410Z,103519.37
2019-05-13T11:21:12.926Z,103535.7
2019-05-13T11:24:44.505Z,103533.09
2019-05-13T11:28:14.468Z,103533.72
2019-05-13T11:31:44.450Z,103530.33
2019-05-13T11:35:15.094Z,103523.7
2019-05-13T11:38:47.252Z,103535.48
2019-05-13T11:42:17.183Z,103518.6
2019-05-13T11:45:47.150Z,103519.03
2019-05-13T11:49:17.146Z,103534.84
2019-05-13T11:52:47.179Z,103524.28
2019-05-13T11:56:17.153Z,103536.09
2019-05-13T11:59:47.119Z,103544.32
2019-05-13T12:03:17.097Z,103531.23
2019-05-13T12:06:54.045Z,103531.06
2019-05-13T12:10:22.772Z,103520.42
2019-05-13T12:13:54.118Z,103532.4
2019-05-13T12:17:24.103Z,103527.27
2019-05-13T12:20:55.074Z,103505.21
2019-05-13T12:24:25.201Z,103513.39
2019-05-13T12:27:55.170Z,103516.35
2019-05-13T12:31:25.143Z,103496.78
2019-05-13T12:34:55.116Z,103498.09
2019-05-13T12:38:25.097Z,103502.71
2019-05-13T12:41:56.211Z,103499.31
2019-05-13T12:45:26.180Z,103512.52
2019-05-13T12:48:56.161Z,103497.36
2019-05-13T12:52:26.122Z,103501.32
2019-05-13T12:55:58.138Z,103495.41
2019-05-13T12:59:31.537Z,103486.94
2019-05-13T13:03:02.019Z,103486.43
2019-05-13T13:06:40.523Z,103465.65
2019-05-13T13:10:06.164Z,103475.5
2019-05-13T13:13:59.847Z,103463.76
2019-05-13T13:17:14.177Z,103467.57
2019-05-13T13:20:45.140Z,103465.67
2019-05-13T13:24:16.114Z,103459.95
2019-05-13T13:28:10.958Z,103466.01
2019-05-13T13:31:25.314Z,103460.7
2019-05-13T13:34:56.557Z,103462.14
2019-05-13T13:38:27.619Z,103456.2
2019-05-13T13:41:57.750Z,103452.34
2019-05-13T13:45:27.715Z,103454.32
2019-05-13T13:48:57.716Z,103453.29
2019-05-13T13:52:27.677Z,103446.76
2019-05-13T13:55:57.646Z,103453.54
2019-05-13T13:59:35.554Z,103451.42
2019-05-13T14:03:06.335Z,103460.57
2019-05-13T14:10:12.317Z,103446.44
2019-05-13T14:13:43.276Z,103440.6
2019-05-13T14:17:13.264Z,103431.57
2019-05-13T14:20:44.247Z,103434.06
2019-05-13T14:24:14.220Z,103437.6
2019-05-13T14:27:44.879Z,103446.51
2019-05-13T14:31:14.862Z,103441.04
2019-05-13T14:34:44.864Z,103433.62
2019-05-13T14:38:14.826Z,103448.53
2019-05-13T14:41:45.819Z,103452.03
2019-05-13T14:45:15.925Z,103452.76
2019-05-13T14:48:46.890Z,103450.28
2019-05-13T14:52:16.955Z,103434.9
2019-05-13T14:55:46.929Z,103441.62
2019-05-13T14:59:17.885Z,103443.09
2019-05-13T15:02:48.882Z,103434.31
2019-05-13T15:06:21.972Z,103429.28
2019-05-13T15:09:52.814Z,103434.14
2019-05-13T15:13:22.824Z,103436.14
2019-05-13T15:17:02.631Z,103441.25
2019-05-13T15:20:27.930Z,103439.87
2019-05-13T15:23:57.906Z,103446.51
2019-05-13T15:27:27.886Z,103444.37
2019-05-13T15:30:58.871Z,103441.72
2019-05-13T15:34:29.084Z,103435.55
2019-05-13T15:38:01.262Z,103441.76
2019-05-13T15:41:31.094Z,103439.37
2019-05-13T15:45:03.095Z,103441.03
2019-05-13T15:48:35.200Z,103434.72
2019-05-13T15:52:06.182Z,103433.14
2019-05-13T15:55:36.195Z,103437.43
2019-05-13T15:59:08.886Z,103431.99
2019-05-13T16:02:38.161Z,103427.9
2019-05-13T16:06:08.480Z,103426.25
2019-05-13T16:09:36.700Z,103424.33
2019-05-13T16:13:06.892Z,103419.67
2019-05-13T16:16:37.414Z,103415.98
2019-05-13T16:20:07.694Z,103415.76
2019-05-13T16:23:38.161Z,103419.36
2019-05-13T16:27:08.540Z,103422.46
2019-05-13T16:30:41.993Z,103418.24
2019-05-13T16:34:13.408Z,103428.06
2019-05-13T16:37:44.620Z,103426.75
2019-05-13T16:41:14.845Z,103430.46
2019-05-13T16:44:45.192Z,103426.99
2019-05-13T16:48:15.524Z,103431.56
2019-05-13T16:51:45.865Z,103428.1
2019-05-13T16:55:16.254Z,103437.88
2019-05-13T16:58:46.587Z,103439.42
2019-05-13T17:02:16.970Z,103438.47
2019-05-13T17:05:47.258Z,103442.79
2019-05-13T17:09:17.595Z,103436.24
2019-05-13T17:12:48.917Z,103437.07
2019-05-13T17:16:21.396Z,103444.46
2019-05-13T17:19:54.031Z,103445.82
2019-05-13T17:23:24.885Z,103446.59
2019-05-13T17:26:55.061Z,103450.17
2019-05-13T17:30:25.412Z,103448
2019-05-13T17:33:55.816Z,103450.81
2019-05-13T17:37:26.243Z,103452.95
2019-05-13T17:40:56.682Z,103466.98
2019-05-13T17:44:27.027Z,103468.43
2019-05-13T17:47:57.338Z,103477.4
2019-05-13T17:51:27.587Z,103470.6
2019-05-13T17:54:57.932Z,103465.73
2019-05-13T17:58:31.216Z,103462.81
2019-05-13T18:02:02.538Z,103463.57
2019-05-13T18:05:33.010Z,103449.62
2019-05-13T18:09:05.247Z,103449.12
2019-05-13T18:14:01.997Z,103448.68
2019-05-13T18:17:33.189Z,103448
2019-05-13T18:21:03.531Z,103443.07
2019-05-13T18:24:37.104Z,103446.96
2019-05-13T18:28:07.228Z,103444.96
2019-05-13T18:31:41.977Z,103451.71
2019-05-13T18:35:04.181Z,103456.45
2019-05-13T18:40:23.168Z,103452
2019-05-13T18:45:37.755Z,103457.66
2019-05-13T18:50:56.506Z,103462.85
2019-05-13T18:54:27.474Z,103459.21
2019-05-13T18:58:00.921Z,103459.34
2019-05-13T19:01:31.947Z,103456.73
2019-05-13T19:05:02.070Z,103455.67
2019-05-13T19:08:33.258Z,103457.42
2019-05-13T19:12:03.398Z,103455.58
2019-05-13T19:15:33.864Z,103457.48
2019-05-13T19:19:13.113Z,103468.03
2019-05-13T19:22:41.622Z,103466.48
2019-05-13T19:26:12.750Z,103467.28
2019-05-13T19:29:44.995Z,103467.87
2019-05-13T19:33:15.477Z,103462.95
2019-05-13T19:36:46.840Z,103465.5
2019-05-13T19:40:18.852Z,103463.01
2019-05-13T19:43:52.124Z,103469.44
2019-05-13T19:47:23.337Z,103471.79
2019-05-13T19:50:53.987Z,103468.46
2019-05-13T19:54:24.242Z,103471.66
2019-05-13T19:57:54.827Z,103480.32
2019-05-13T20:01:25.148Z,103476.03
2019-05-13T20:04:53.591Z,103489.07
2019-05-13T20:08:24.041Z,103492.39
2019-05-13T20:11:57.251Z,103485.33
2019-05-13T20:15:31.452Z,103493.48
2019-05-13T20:19:02.842Z,103488.96
2019-05-13T20:22:34.213Z,103491.6
2019-05-13T20:26:04.768Z,103491.8
2019-05-13T20:29:35.865Z,103491.82
2019-05-13T20:33:07.306Z,103494.59
2019-05-13T20:36:37.915Z,103493
2019-05-13T20:40:11.316Z,103494.31
2019-05-13T20:43:42.774Z,103497.1
2019-05-13T20:47:12.806Z,103503.28
2019-05-13T20:50:43.237Z,103502.96
2019-05-13T20:54:13.703Z,103506.21
2019-05-13T20:57:44.272Z,103499.6
2019-05-13T21:01:33.533Z,103498.6
2019-05-13T21:05:07.077Z,103500.42
2019-05-13T21:08:45.914Z,103501.73
2019-05-13T21:12:16.293Z,103503.06
2019-05-13T21:15:46.337Z,103506.92
2019-05-13T21:19:16.432Z,103509.51
2019-05-13T21:22:46.676Z,103510.65
2019-05-13T21:26:17.907Z,103508.68
2019-05-13T21:29:48.172Z,103502.54
2019-05-13T21:33:18.564Z,103503.17
2019-05-13T21:36:51.705Z,103499.15
2019-05-13T21:40:22.205Z,103501.25
2019-05-13T21:43:53.419Z,103500.43
2019-05-13T21:47:23.710Z,103500.46
2019-05-13T21:50:54.232Z,103495.25
2019-05-13T21:54:24.486Z,103491.51
2019-05-13T21:57:54.510Z,103493.79
